Time;durP1;ratioP1;P1;durP2;ratioP2;P2;SDS_P1;SDS_P2;PMS_P1;PMS_P2;Temp;Humidity;BMP_temperature;BMP_pressure;BME280_temperature;BME280_humidity;BME280_pressure;Samples;Min_cycle;Max_cycle;Signal;HPM_P1;HPM_P2
2021/12/19 00:00:12;;;;;;;22.67;4.03;;;;;;;6.21;94.46;101792.25;5044943;28;20044;-79
2021/12/19 00:10:49;;;;;;;21.75;3.78;;;;;;;6.08;94.23;101803.19;5052518;28;20024;-80
2021/12/19 00:13:14;;;;;;;17.98;4.70;;;;;;;6.04;94.28;101801.97;5053854;28;20024;-79
2021/12/19 00:15:41;;;;;;;17.38;3.58;;;;;;;6.03;94.08;101791.34;5033305;28;20062;-79
2021/12/19 00:18:07;;;;;;;19.23;3.45;;;;;;;6.00;94.23;101785.34;5047383;28;20482;-79
2021/12/19 00:20:32;;;;;;;15.07;4.03;;;;;;;6.00;93.75;101789.91;5051506;28;20032;-79
2021/12/19 00:22:57;;;;;;;17.63;3.45;;;;;;;5.96;94.44;101788.69;5053542;28;20025;-79
2021/12/19 00:25:23;;;;;;;25.58;4.43;;;;;;;5.92;94.49;101784.72;5051314;28;20465;-79
2021/12/19 00:27:48;;;;;;;14.90;3.15;;;;;;;5.88;94.44;101769.97;5052040;28;20033;-79
2021/12/19 00:30:13;;;;;;;21.13;5.13;;;;;;;5.87;94.16;101760.22;5042316;28;20033;-79
2021/12/19 00:32:40;;;;;;;17.30;3.70;;;;;;;5.86;93.89;101756.66;5035547;28;20021;-79
2021/12/19 00:35:06;;;;;;;12.00;3.80;;;;;;;5.88;93.93;101754.56;5048626;28;20082;-79
2021/12/19 00:37:31;;;;;;;11.65;2.58;;;;;;;5.94;94.10;101747.47;5053196;28;20029;-79
2021/12/19 00:39:57;;;;;;;16.55;2.45;;;;;;;5.98;93.90;101748.72;5034836;28;20029;-79
2021/12/19 00:42:30;;;;;;;12.70;2.10;;;;;;;6.06;93.99;101750.31;5066120;28;20072;-79
2021/12/19 00:44:58;;;;;;;11.45;2.00;;;;;;;6.17;93.58;101742.31;5060291;28;20021;-79
2021/12/19 00:47:23;;;;;;;10.55;2.50;;;;;;;6.28;93.54;101742.66;5048213;28;20032;-79
2021/12/19 00:49:48;;;;;;;14.10;3.47;;;;;;;6.35;93.15;101733.38;5050226;28;20021;-78
2021/12/19 00:52:14;;;;;;;10.90;1.65;;;;;;;6.43;93.08;101737.69;5052287;28;20025;-79
2021/12/19 00:54:40;;;;;;;13.13;3.03;;;;;;;6.50;92.61;101729.53;5052220;28;20498;-79
2021/12/19 00:57:06;;;;;;;10.02;2.85;;;;;;;6.54;92.47;101725.31;5061401;28;20024;-79
2021/12/19 00:59:31;;;;;;;12.25;2.35;;;;;;;6.55;91.90;101727.81;5049519;28;20029;-79
2021/12/19 01:01:57;;;;;;;15.32;2.28;;;;;;;6.55;91.82;101719.66;5052821;28;20040;-79
2021/12/19 01:04:22;;;;;;;13.32;2.60;;;;;;;6.55;91.84;101735.94;5034943;28;20045;-79
2021/12/19 01:06:48;;;;;;;14.45;2.03;;;;;;;6.55;91.63;101738.63;5050965;28;20364;-79
2021/12/19 01:09:13;;;;;;;19.13;3.38;;;;;;;6.55;90.96;101716.97;5063797;28;20044;-77
2021/12/19 01:11:39;;;;;;;20.67;3.00;;;;;;;6.55;90.96;101729.69;5052410;28;20404;-79
2021/12/19 01:14:05;;;;;;;12.98;1.80;;;;;;;6.51;91.06;101726.56;5050407;28;20033;-79
2021/12/19 01:16:30;;;;;;;16.92;3.10;;;;;;;6.52;90.81;101733.66;5033264;28;20036;-79
2021/12/19 01:18:56;;;;;;;15.52;2.55;;;;;;;6.55;91.19;101732.41;5051466;28;20036;-79
2021/12/19 01:21:21;;;;;;;11.73;2.30;;;;;;;6.55;90.86;101733.22;5041814;28;20025;-79
2021/12/19 01:23:46;;;;;;;9.30;2.03;;;;;;;6.56;90.96;101721.31;5035631;28;20056;-79
2021/12/19 01:26:13;;;;;;;14.38;1.90;;;;;;;6.56;90.48;101729.44;5041717;28;20028;-79
2021/12/19 01:28:39;;;;;;;10.88;2.22;;;;;;;6.56;90.62;101728.63;5051053;28;20370;-79
2021/12/19 01:31:05;;;;;;;9.75;2.30;;;;;;;6.56;90.37;101728.63;5049951;28;20028;-79
2021/12/19 01:33:30;;;;;;;13.73;3.15;;;;;;;6.54;90.42;101730.72;5051519;28;20035;-79
2021/12/19 01:35:56;;;;;;;12.57;1.98;;;;;;;6.52;90.42;101730.97;5028420;28;20028;-79
2021/12/19 01:38:21;;;;;;;13.35;2.13;;;;;;;6.51;89.95;101726.56;5050747;28;20103;-79
2021/12/19 01:40:46;;;;;;;12.00;2.88;;;;;;;6.51;90.33;101734.69;5051557;28;20032;-79
2021/12/19 01:43:12;;;;;;;14.98;2.17;;;;;;;6.48;90.34;101721.59;5034541;28;20020;-80
2021/12/19 01:45:39;;;;;;;21.70;3.83;;;;;;;6.49;90.02;101722.44;5035838;28;20489;-79
2021/12/19 01:48:06;;;;;;;15.95;3.28;;;;;;;6.45;90.21;101714.75;5056793;28;20151;-79
2021/12/19 01:50:33;;;;;;;12.45;2.88;;;;;;;6.46;90.62;101718.28;5020672;28;20026;-79
2021/12/19 01:53:02;;;;;;;18.33;2.78;;;;;;;6.44;90.59;101699.56;5023052;28;20027;-80
2021/12/19 01:55:30;;;;;;;13.20;2.35;;;;;;;6.44;90.45;101706.88;5040014;28;20029;-79
2021/12/19 01:57:55;;;;;;;17.35;3.08;;;;;;;6.40;90.29;101702.94;5040750;28;20366;-80
2021/12/19 02:00:41;;;;;;;16.13;2.50;;;;;;;6.37;90.38;101711.50;5056373;28;20028;-79
2021/12/19 02:03:07;;;;;;;14.07;2.40;;;;;;;6.34;90.25;101703.84;5055689;28;20036;-80
2021/12/19 02:05:33;;;;;;;13.32;2.60;;;;;;;6.30;90.46;101703.47;5048747;28;20489;-80
2021/12/19 02:07:59;;;;;;;13.68;2.60;;;;;;;6.29;90.24;101711.78;5057378;28;20028;-80
2021/12/19 02:10:26;;;;;;;12.05;2.28;;;;;;;6.27;90.46;101697.63;5056638;28;20017;-79
2021/12/19 02:12:52;;;;;;;16.42;3.03;;;;;;;6.26;90.44;101696.00;5038945;28;20413;-79
2021/12/19 02:15:20;;;;;;;17.13;2.53;;;;;;;6.25;90.34;101691.59;5039194;28;20016;-80
2021/12/19 02:17:46;;;;;;;14.07;2.75;;;;;;;6.27;90.50;101692.22;5040232;28;20131;-80
2021/12/19 02:20:13;;;;;;;12.55;2.20;;;;;;;6.26;90.26;101691.41;5057607;28;20081;-80
2021/12/19 02:22:39;;;;;;;22.10;3.78;;;;;;;6.28;90.64;101693.91;5057615;28;20024;-80
2021/12/19 02:25:05;;;;;;;16.65;2.35;;;;;;;6.30;90.67;101680.94;5057370;28;20371;-80
2021/12/19 02:27:33;;;;;;;9.98;2.83;;;;;;;6.29;90.59;101680.13;5057516;28;20457;-79
2021/12/19 02:29:59;;;;;;;16.65;2.13;;;;;;;6.31;90.42;101674.50;5057707;28;20017;-80
2021/12/19 02:32:27;;;;;;;12.95;2.30;;;;;;;6.33;90.48;101685.91;5052555;28;20090;-80
2021/12/19 02:34:57;;;;;;;15.52;3.38;;;;;;;6.35;90.28;101673.81;5041239;28;20029;-80
2021/12/19 02:37:47;;;;;;;13.45;3.75;;;;;;;6.36;90.66;101674.66;5058364;28;20059;-80
2021/12/19 02:48:27;;;;;;;14.15;2.42;;;;;;;6.38;90.11;101657.13;5055781;28;20051;-79
2021/12/19 02:50:54;;;;;;;17.35;3.83;;;;;;;6.37;90.11;101662.75;5043359;28;20025;-81
2021/12/19 02:53:28;;;;;;;14.20;3.25;;;;;;;6.35;90.01;101656.72;5050163;28;20104;-80
2021/12/19 02:55:53;;;;;;;12.50;2.67;;;;;;;6.36;89.97;101655.69;5051723;28;20020;-80
2021/12/19 02:58:19;;;;;;;18.20;2.03;;;;;;;6.36;90.16;101653.00;5048070;28;20383;-80
2021/12/19 03:00:44;;;;;;;21.67;2.65;;;;;;;6.37;89.89;101643.81;5054790;28;20028;-80
2021/12/19 03:03:09;;;;;;;18.70;3.10;;;;;;;6.36;90.08;101653.81;5045537;28;20029;-80
2021/12/19 03:05:37;;;;;;;15.25;3.00;;;;;;;6.35;90.00;101656.72;5046356;28;20070;-80
2021/12/19 03:08:03;;;;;;;20.83;3.30;;;;;;;6.34;90.17;101657.78;5034967;28;20386;-79
2021/12/19 03:18:14;;;;;;;19.83;4.53;;;;;;;6.37;90.19;101654.63;5056152;28;20055;-79
2021/12/19 03:20:41;;;;;;;16.92;2.95;;;;;;;6.36;90.45;101647.56;5040211;28;20028;-80
2021/12/19 03:23:07;;;;;;;21.55;4.18;;;;;;;6.35;90.36;101640.47;5040152;28;20135;-79
2021/12/19 03:25:33;;;;;;;16.02;3.38;;;;;;;6.41;90.40;101639.56;5038823;28;20025;-80
2021/12/19 03:28:02;;;;;;;20.15;3.67;;;;;;;6.42;90.54;101654.78;5052603;28;20436;-80
2021/12/19 03:30:29;;;;;;;22.17;3.45;;;;;;;6.42;90.20;101639.38;5037502;28;20025;-80
2021/12/19 03:32:54;;;;;;;27.95;3.20;;;;;;;6.42;90.29;101630.41;5018463;28;20521;-79
2021/12/19 03:35:20;;;;;;;23.55;4.38;;;;;;;6.36;90.16;101626.72;5050862;28;20033;-79
2021/12/19 03:37:45;;;;;;;17.63;3.38;;;;;;;6.33;90.00;101626.31;5048969;28;20188;-79
2021/12/19 03:40:13;;;;;;;19.40;3.35;;;;;;;6.33;90.30;101626.31;5037158;28;20094;-79
2021/12/19 03:42:45;;;;;;;21.10;3.80;;;;;;;6.28;90.27;101627.03;5046825;28;20087;-79
2021/12/19 03:45:14;;;;;;;25.83;4.93;;;;;;;6.23;90.32;101622.28;5052313;28;20584;-79
2021/12/19 03:47:39;;;;;;;23.83;3.65;;;;;;;6.20;90.28;101628.13;5058000;28;20501;-79
2021/12/19 03:50:06;;;;;;;14.65;3.22;;;;;;;6.26;90.17;101620.19;5052112;28;20017;-79
2021/12/19 03:52:32;;;;;;;17.75;3.17;;;;;;;6.25;90.40;101623.91;5054112;28;20401;-79
2021/12/19 03:54:57;;;;;;;20.90;3.83;;;;;;;6.29;90.33;101608.88;5049346;28;20028;-79
2021/12/19 03:57:22;;;;;;;20.70;3.53;;;;;;;6.37;90.43;101601.28;5040802;28;20082;-79
2021/12/19 03:59:49;;;;;;;22.35;3.85;;;;;;;6.42;90.21;101592.50;5050729;28;20398;-79
2021/12/19 04:02:23;;;;;;;15.68;2.58;;;;;;;6.48;90.06;101604.31;5054083;28;20028;-79
2021/12/19 04:04:49;;;;;;;23.52;3.00;;;;;;;6.51;89.75;101599.25;5046281;28;20031;-79
2021/12/19 04:07:14;;;;;;;15.90;3.13;;;;;;;6.54;89.51;101606.91;5052324;28;20029;-79
2021/12/19 04:09:41;;;;;;;18.88;3.35;;;;;;;6.53;89.30;101594.44;5054995;28;20029;-79
2021/12/19 04:12:08;;;;;;;21.33;3.05;;;;;;;6.52;89.50;101598.22;5049917;28;20068;-80
2021/12/19 04:14:35;;;;;;;11.93;2.58;;;;;;;6.50;89.06;101594.91;5033105;28;20029;-80
2021/12/19 04:17:01;;;;;;;10.23;2.05;;;;;;;6.49;88.98;101590.50;5050120;28;20033;-79
2021/12/19 04:19:27;;;;;;;15.18;3.42;;;;;;;6.44;88.92;101595.81;5058851;28;20036;-80
2021/12/19 04:21:53;;;;;;;23.77;4.13;;;;;;;6.46;89.21;101580.13;5035687;28;20031;-80
2021/12/19 04:24:18;;;;;;;16.75;2.92;;;;;;;6.48;89.06;101574.50;5053389;28;20041;-79
2021/12/19 04:26:43;;;;;;;26.58;3.95;;;;;;;6.52;89.02;101583.81;5052274;28;20028;-79
2021/12/19 04:29:09;;;;;;;12.13;2.80;;;;;;;6.58;89.16;101578.34;5045136;28;20029;-79
2021/12/19 04:31:35;;;;;;;17.35;3.22;;;;;;;6.61;88.83;101572.47;5046528;28;20493;-79
2021/12/19 04:34:00;;;;;;;13.00;3.85;;;;;;;6.64;88.91;101569.28;5065725;28;20044;-79
2021/12/19 04:36:32;;;;;;;13.70;3.38;;;;;;;6.68;88.47;101564.22;5032794;28;20075;-79
2021/12/19 04:50:51;;;;;;;19.60;2.88;;;;;;;6.76;88.00;101558.50;5051808;28;20036;-79
2021/12/19 05:03:33;;;;;;;18.08;3.80;;;;;;;6.76;87.97;101579.34;5055926;28;20486;-79
2021/12/19 05:06:14;;;;;;;18.05;2.80;;;;;;;6.76;87.94;101571.22;5039561;28;20392;-79
2021/12/19 05:14:14;;;;;;;16.77;2.65;;;;;;;6.77;87.97;101567.47;5051426;28;20561;-79
2021/12/19 05:16:43;;;;;;;24.20;3.60;;;;;;;6.75;88.41;101580.41;5051000;28;20422;-79
2021/12/19 05:19:31;;;;;;;24.45;4.18;;;;;;;6.74;88.24;101576.03;5050807;28;20497;-79
2021/12/19 05:22:00;;;;;;;16.88;3.15;;;;;;;6.72;88.24;101591.72;5037278;28;20063;-79
2021/12/19 05:27:07;;;;;;;14.25;3.08;;;;;;;6.63;88.78;101593.91;5042980;28;20031;-79
2021/12/19 05:29:32;;;;;;;21.25;3.95;;;;;;;6.61;88.80;101579.75;5040089;28;20074;-79
2021/12/19 05:31:59;;;;;;;15.70;3.40;;;;;;;6.60;89.26;101588.94;5052218;28;20394;-79
2021/12/19 05:34:27;;;;;;;22.73;2.92;;;;;;;6.54;89.36;101585.25;5051159;28;20031;-79
2021/12/19 05:47:30;;;;;;;16.42;3.42;;;;;;;6.53;90.17;101580.91;5050719;28;20032;-80
2021/12/19 05:49:56;;;;;;;15.13;3.05;;;;;;;6.51;89.98;101591.13;5051147;28;20071;-79
2021/12/19 05:52:21;;;;;;;17.08;3.85;;;;;;;6.53;89.82;101583.59;5051006;28;20462;-80
2021/12/19 05:54:46;;;;;;;19.90;2.30;;;;;;;6.55;90.23;101567.97;5048842;28;20021;-79
2021/12/19 05:57:12;;;;;;;13.40;2.45;;;;;;;6.57;89.88;101576.66;5043493;28;20037;-79
2021/12/19 05:59:37;;;;;;;14.60;3.03;;;;;;;6.58;90.21;101575.63;5049912;28;20033;-80
2021/12/19 06:02:05;;;;;;;14.20;2.72;;;;;;;6.57;90.09;101584.78;5032208;28;20025;-79
2021/12/19 06:04:32;;;;;;;17.60;3.35;;;;;;;6.55;89.88;101586.91;5050419;28;20063;-79
2021/12/19 06:06:58;;;;;;;17.23;3.03;;;;;;;6.54;90.18;101584.41;5029476;28;20338;-79
2021/12/19 06:09:23;;;;;;;12.50;3.55;;;;;;;6.53;89.98;101596.31;5045058;28;20036;-79
2021/12/19 06:11:48;;;;;;;11.00;2.25;;;;;;;6.51;89.93;101606.56;5051887;28;20032;-79
2021/12/19 06:14:14;;;;;;;20.90;2.63;;;;;;;6.43;89.99;101602.25;5050748;28;20029;-79
2021/12/19 06:16:39;;;;;;;11.27;2.65;;;;;;;6.37;89.94;101595.06;5050276;28;20537;-78
2021/12/19 06:19:05;;;;;;;18.95;3.30;;;;;;;6.38;90.42;101602.09;5033689;28;20029;-79
2021/12/19 06:21:30;;;;;;;16.63;3.50;;;;;;;6.40;90.15;101610.84;5038361;28;20032;-79
2021/12/19 06:23:59;;;;;;;14.93;2.25;;;;;;;6.34;90.40;101601.75;5050915;28;20041;-79
2021/12/19 06:26:24;;;;;;;13.85;2.72;;;;;;;6.28;90.46;101607.25;5028743;28;20029;-79
2021/12/19 06:28:50;;;;;;;15.60;2.90;;;;;;;6.29;90.86;101603.47;5053430;28;20359;-79
2021/12/19 06:31:16;;;;;;;12.90;2.28;;;;;;;6.31;90.56;101606.78;5035955;28;20094;-79
2021/12/19 06:33:42;;;;;;;18.20;3.10;;;;;;;6.30;90.79;101611.38;5050011;28;20363;-79
2021/12/19 06:36:10;;;;;;;12.02;2.90;;;;;;;6.28;90.45;101612.66;5051930;28;20083;-79
2021/12/19 06:38:35;;;;;;;20.17;3.42;;;;;;;6.24;90.58;101606.84;5054531;28;20033;-79
2021/12/19 06:41:03;;;;;;;14.82;2.50;;;;;;;6.19;90.35;101603.97;5049068;28;20032;-79
2021/12/19 06:43:30;;;;;;;16.30;2.70;;;;;;;6.13;90.66;101627.38;5046844;28;20474;-79
2021/12/19 06:45:57;;;;;;;18.58;3.25;;;;;;;6.04;90.76;101626.00;5041539;28;20605;-79
2021/12/19 06:48:24;;;;;;;11.63;2.35;;;;;;;5.96;90.69;101637.94;5055314;28;20071;-79
2021/12/19 06:50:50;;;;;;;16.27;2.63;;;;;;;5.91;90.71;101634.22;5049859;28;20040;-79
2021/12/19 06:53:18;;;;;;;15.82;3.05;;;;;;;5.85;91.14;101641.34;5040578;28;20104;-78
2021/12/19 06:55:43;;;;;;;15.00;3.10;;;;;;;5.78;91.08;101636.00;5052014;28;20108;-79
2021/12/19 06:58:08;;;;;;;12.93;2.35;;;;;;;5.71;90.97;101640.63;5039015;28;20031;-79
2021/12/19 07:00:34;;;;;;;14.27;2.55;;;;;;;5.68;91.33;101646.47;5046794;28;20037;-79
2021/12/19 07:02:59;;;;;;;21.65;3.95;;;;;;;5.62;91.53;101647.38;5055021;28;20156;-79
2021/12/19 07:05:25;;;;;;;21.10;3.53;;;;;;;5.57;91.12;101642.59;5050883;28;20031;-79
2021/12/19 07:07:50;;;;;;;16.25;2.92;;;;;;;5.53;91.42;101640.53;5054421;28;20033;-79
2021/12/19 07:10:16;;;;;;;14.55;2.33;;;;;;;5.48;91.54;101629.56;5015720;28;20093;-78
2021/12/19 07:12:41;;;;;;;16.10;2.85;;;;;;;5.46;91.27;101626.25;5056788;28;20032;-78
2021/12/19 07:15:07;;;;;;;11.40;2.47;;;;;;;5.44;91.43;101622.94;5008780;28;20389;-78
2021/12/19 07:17:32;;;;;;;20.75;3.78;;;;;;;5.42;91.44;101625.84;5031510;28;20115;-81
2021/12/19 07:19:58;;;;;;;14.18;2.60;;;;;;;5.39;91.31;101630.88;5026618;28;20105;-81
2021/12/19 07:22:23;;;;;;;16.23;2.88;;;;;;;5.37;91.37;101635.66;5031926;28;20025;-80
2021/12/19 07:24:48;;;;;;;7.40;2.20;;;;;;;5.33;91.40;101644.22;5039400;28;20469;-78
2021/12/19 07:27:14;;;;;;;17.92;3.40;;;;;;;5.27;91.59;101642.41;5031386;28;20047;-78
2021/12/19 07:29:40;;;;;;;16.05;2.58;;;;;;;5.23;91.54;101649.28;5015157;28;20025;-79
2021/12/19 07:32:06;;;;;;;17.88;2.42;;;;;;;5.17;91.44;101652.84;5032238;28;20044;-76
2021/12/19 07:34:34;;;;;;;11.23;1.92;;;;;;;5.10;91.67;101658.31;5039536;28;20045;-77
2021/12/19 07:37:00;;;;;;;9.95;2.95;;;;;;;5.04;91.47;101655.63;5040690;28;20270;-77
2021/12/19 07:42:00;;;;;;;15.80;2.30;;;;;;;4.97;91.48;101662.94;5047621;28;20106;-77
2021/12/19 07:44:26;;;;;;;9.65;2.40;;;;;;;4.92;91.50;101662.75;5043811;28;20024;-76
2021/12/19 07:46:51;;;;;;;21.42;3.38;;;;;;;4.87;91.71;101672.31;5026068;28;20043;-78
2021/12/19 07:49:17;;;;;;;17.98;2.30;;;;;;;4.84;91.89;101670.03;5041602;28;20029;-77
2021/12/19 07:51:42;;;;;;;12.20;2.47;;;;;;;4.82;91.57;101672.13;5029753;28;20037;-77
2021/12/19 07:54:08;;;;;;;12.90;1.83;;;;;;;4.78;91.69;101679.00;5032018;28;20032;-77
2021/12/19 07:56:33;;;;;;;12.05;2.13;;;;;;;4.75;91.71;101676.75;5032122;28;20029;-77
2021/12/19 07:59:02;;;;;;;13.23;1.95;;;;;;;4.73;91.63;101680.69;5035937;28;20033;-77
2021/12/19 08:01:28;;;;;;;6.15;2.13;;;;;;;4.70;91.73;101691.94;5033541;28;20036;-77
2021/12/19 08:03:53;;;;;;;10.63;1.92;;;;;;;4.67;91.82;101687.78;5016467;28;20021;-77
2021/12/19 08:06:19;;;;;;;12.63;2.30;;;;;;;4.64;91.90;101682.81;5015711;28;20032;-77
2021/12/19 08:08:50;;;;;;;7.22;1.40;;;;;;;4.64;91.69;101683.63;5051805;28;21774;-76
2021/12/19 08:14:00;;;;;;;4.53;1.08;;;;;;;4.66;91.30;101691.50;5034384;28;20537;-77
2021/12/19 08:16:25;;;;;;;4.28;0.90;;;;;;;4.68;91.12;101692.94;5039255;28;20045;-77
2021/12/19 08:18:52;;;;;;;3.08;0.68;;;;;;;4.71;90.85;101689.00;5045795;28;20038;-76
2021/12/19 08:21:19;;;;;;;6.13;0.73;;;;;;;4.72;90.42;101685.28;5040409;28;20546;-77
2021/12/19 08:23:44;;;;;;;6.53;0.70;;;;;;;4.75;89.99;101687.56;5048672;28;20048;-78
2021/12/19 08:26:09;;;;;;;4.95;0.63;;;;;;;4.76;89.42;101696.47;5049705;28;20812;-79
2021/12/19 08:28:35;;;;;;;3.17;1.73;;;;;;;4.76;89.02;101707.28;5025384;28;20107;-77
2021/12/19 08:31:00;;;;;;;3.28;0.82;;;;;;;4.75;88.45;101698.34;5034213;28;20021;-77
2021/12/19 08:33:25;;;;;;;2.78;0.98;;;;;;;4.73;87.31;101695.03;5047444;28;20055;-77
2021/12/19 08:35:51;;;;;;;2.42;0.60;;;;;;;4.71;86.23;101697.09;5050983;28;20025;-77
2021/12/19 08:38:16;;;;;;;4.40;0.50;;;;;;;4.69;85.89;101696.47;5035096;28;20029;-77
2021/12/19 08:40:44;;;;;;;3.20;0.60;;;;;;;4.68;85.38;101692.13;5045941;28;20374;-77
2021/12/19 08:43:09;;;;;;;3.67;0.60;;;;;;;4.66;84.93;101694.22;5041686;28;20021;-77
2021/12/19 08:45:37;;;;;;;2.35;1.33;;;;;;;4.64;84.18;101699.84;5050782;28;20131;-77
2021/12/19 08:48:04;;;;;;;4.80;0.70;;;;;;;4.63;83.44;101706.25;5052657;28;20052;-77
2021/12/19 08:50:29;;;;;;;4.25;1.05;;;;;;;4.63;82.94;101708.13;5050955;28;20083;-77
2021/12/19 08:52:55;;;;;;;1.92;0.60;;;;;;;4.61;82.39;101715.63;5052712;28;20021;-77
2021/12/19 08:55:21;;;;;;;3.20;0.88;;;;;;;4.60;82.11;101719.38;5041711;28;20393;-77
2021/12/19 08:57:46;;;;;;;1.38;0.43;;;;;;;4.59;81.08;101720.41;5016849;28;20175;-77
2021/12/19 09:00:13;;;;;;;1.00;0.68;;;;;;;4.61;81.11;101726.41;5050421;28;20064;-78
2021/12/19 09:02:41;;;;;;;2.22;0.60;;;;;;;4.61;80.62;101721.00;5033223;28;20037;-79
2021/12/19 09:05:07;;;;;;;1.33;0.35;;;;;;;4.59;80.29;101713.13;5033869;28;20448;-78
2021/12/19 09:07:32;;;;;;;2.35;0.40;;;;;;;4.60;79.43;101722.06;5026866;28;20039;-78
2021/12/19 09:09:57;;;;;;;1.60;0.32;;;;;;;4.62;78.84;101728.09;5045844;28;20029;-78
2021/12/19 09:12:23;;;;;;;0.65;0.30;;;;;;;4.64;77.71;101728.72;5029881;28;20025;-78
2021/12/19 09:14:48;;;;;;;2.95;0.40;;;;;;;4.66;77.08;101734.72;5049304;28;20462;-78
2021/12/19 09:17:14;;;;;;;1.52;0.40;;;;;;;4.68;77.44;101743.44;5040809;28;20032;-78
2021/12/19 09:19:39;;;;;;;1.13;0.32;;;;;;;4.66;77.00;101745.53;5033997;28;20421;-77
2021/12/19 09:22:04;;;;;;;1.77;0.30;;;;;;;4.65;76.67;101757.38;5040214;28;20028;-78
2021/12/19 09:24:30;;;;;;;2.33;0.40;;;;;;;4.63;75.60;101762.97;5030783;28;20053;-77
2021/12/19 09:26:59;;;;;;;2.25;0.50;;;;;;;4.63;75.52;101768.38;5041292;28;20022;-78
2021/12/19 09:29:28;;;;;;;1.45;0.40;;;;;;;4.62;75.36;101768.59;5021214;28;20470;-78
2021/12/19 09:31:54;;;;;;;0.57;0.35;;;;;;;4.61;74.66;101769.63;5051113;28;20112;-78
2021/12/19 09:34:19;;;;;;;0.77;0.47;;;;;;;4.63;74.36;101783.75;5039602;28;20099;-77
2021/12/19 09:36:48;;;;;;;0.30;0.28;;;;;;;4.67;74.18;101774.22;5017223;28;20470;-77
2021/12/19 09:39:15;;;;;;;0.47;0.30;;;;;;;4.68;73.13;101773.16;5031921;28;20028;-77
2021/12/19 09:41:44;;;;;;;1.38;0.20;;;;;;;4.67;73.13;101780.44;5021210;28;20120;-78
2021/12/19 09:44:11;;;;;;;0.40;0.40;;;;;;;4.66;73.10;101786.03;5027596;28;20492;-77
2021/12/19 09:46:39;;;;;;;1.85;0.28;;;;;;;4.61;72.33;101783.13;5049901;28;20035;-78
2021/12/19 09:49:05;;;;;;;0.35;0.17;;;;;;;4.60;72.14;101789.59;5023470;28;20067;-77
2021/12/19 09:51:33;;;;;;;1.08;0.30;;;;;;;4.60;71.84;101776.09;5043552;28;20052;-77
2021/12/19 09:53:58;;;;;;;0.30;0.20;;;;;;;4.57;71.71;101785.44;5026479;28;20025;-78
2021/12/19 09:56:24;;;;;;;1.27;0.38;;;;;;;4.57;71.07;101784.59;5027553;28;20087;-78
2021/12/19 09:58:50;;;;;;;1.52;0.40;;;;;;;4.54;71.41;101785.03;5027452;28;20036;-77
2021/12/19 10:01:15;;;;;;;0.57;0.30;;;;;;;4.52;70.77;101787.09;5044592;28;20533;-76
2021/12/19 10:03:43;;;;;;;2.05;0.40;;;;;;;4.53;70.28;101783.34;5025336;28;20115;-77
2021/12/19 10:06:22;;;;;;;0.73;0.30;;;;;;;4.52;70.26;101787.94;5044315;28;20079;-77
2021/12/19 10:09:09;;;;;;;0.17;0.17;;;;;;;4.57;69.18;101793.53;5025195;28;20061;-77
2021/12/19 10:14:42;;;;;;;0.32;0.20;;;;;;;4.62;68.67;101799.16;5045871;28;20033;-77
2021/12/19 10:17:16;;;;;;;0.30;0.30;;;;;;;4.65;67.84;101803.31;5038468;28;20116;-77
2021/12/19 10:19:42;;;;;;;0.52;0.30;;;;;;;4.70;66.95;101803.50;5050282;28;20037;-77
2021/12/19 10:22:27;;;;;;;0.10;0.10;;;;;;;4.72;65.78;101798.72;5048670;28;20043;-77
2021/12/19 10:24:54;;;;;;;0.10;0.10;;;;;;;4.77;65.31;101815.13;5031252;28;20398;-77
2021/12/19 10:27:36;;;;;;;1.02;0.50;;;;;;;4.76;65.24;101805.34;5038878;28;20488;-77
2021/12/19 10:30:15;;;;;;;0.68;0.17;;;;;;;4.79;64.40;101814.91;5028158;28;20086;-76
2021/12/19 10:33:07;;;;;;;1.23;0.47;;;;;;;4.80;64.08;101817.44;5041778;28;20048;-75
2021/12/19 10:35:51;;;;;;;2.17;0.52;;;;;;;4.84;63.09;101813.25;5035065;28;20561;-76
2021/12/19 10:38:19;;;;;;;2.00;0.22;;;;;;;4.88;62.06;101809.09;5049051;28;20041;-76
2021/12/19 10:40:55;;;;;;;0.43;0.30;;;;;;;4.91;61.79;101807.84;5032764;28;20252;-75
2021/12/19 10:43:21;;;;;;;0.75;0.20;;;;;;;4.96;61.28;101807.19;5047635;28;20029;-75
2021/12/19 10:45:48;;;;;;;0.20;0.20;;;;;;;4.99;60.40;101833.78;5033853;28;20448;-76
2021/12/19 10:48:15;;;;;;;0.45;0.30;;;;;;;5.03;59.68;101810.72;5030986;28;20028;-76
2021/12/19 10:50:59;;;;;;;3.35;0.30;;;;;;;5.06;59.57;101818.41;5054363;28;20033;-75
2021/12/19 10:53:30;;;;;;;0.68;0.20;;;;;;;5.10;59.10;101806.97;5053274;28;20037;-77
2021/12/19 10:55:58;;;;;;;1.55;0.32;;;;;;;5.14;58.48;101810.06;5053774;28;20087;-75
2021/12/19 10:58:35;;;;;;;1.20;0.38;;;;;;;5.17;58.11;101823.16;5051773;28;20025;-76
2021/12/19 11:01:08;;;;;;;1.10;0.20;;;;;;;5.20;57.32;101822.72;5037969;28;20055;-75
2021/12/19 11:03:42;;;;;;;0.85;0.10;;;;;;;5.23;57.29;101811.47;5035715;28;20058;-76
2021/12/19 11:06:23;;;;;;;1.08;0.30;;;;;;;5.26;56.63;101831.84;5044650;28;20444;-76
2021/12/19 11:08:50;;;;;;;0.10;0.10;;;;;;;5.25;57.01;101836.44;5016691;28;20049;-76
2021/12/19 11:11:30;;;;;;;0.98;0.20;;;;;;;5.22;57.26;101853.09;5049912;28;20024;-75
2021/12/19 11:13:55;;;;;;;0.90;0.32;;;;;;;5.21;57.37;101848.75;5012969;28;20033;-75
2021/12/19 11:16:21;;;;;;;1.55;0.30;;;;;;;5.17;57.22;101844.78;5032019;28;20036;-75
2021/12/19 11:18:47;;;;;;;0.20;0.13;;;;;;;5.17;57.43;101816.91;5052458;28;20021;-75
2021/12/19 11:21:12;;;;;;;0.45;0.13;;;;;;;5.16;57.04;101843.13;5039152;28;20500;-75
2021/12/19 11:23:37;;;;;;;2.33;0.65;;;;;;;5.15;56.98;101844.16;5031252;28;20057;-75
2021/12/19 11:26:03;;;;;;;0.47;0.20;;;;;;;5.15;56.46;101827.94;5051511;28;20074;-75
2021/12/19 11:28:28;;;;;;;1.75;0.20;;;;;;;5.14;57.26;101844.38;5011873;28;20021;-76
2021/12/19 11:30:54;;;;;;;1.42;0.40;;;;;;;5.12;57.52;101841.88;5055153;28;20008;-75
2021/12/19 11:33:29;;;;;;;2.95;0.73;;;;;;;5.10;57.81;101846.66;5027422;28;20382;-75
2021/12/19 11:35:55;;;;;;;1.23;0.15;;;;;;;5.07;58.06;101822.75;5043705;28;20449;-75
2021/12/19 11:38:21;;;;;;;0.70;0.30;;;;;;;5.06;57.70;101840.03;5026947;28;20105;-76
2021/12/19 11:40:46;;;;;;;1.00;0.28;;;;;;;5.05;58.00;101849.19;5034420;28;20068;-76
2021/12/19 11:43:15;;;;;;;0.63;0.30;;;;;;;5.03;58.24;101840.44;5029344;28;20029;-76
2021/12/19 11:45:56;;;;;;;0.32;0.10;;;;;;;5.02;58.10;101849.59;5048609;28;20532;-76
2021/12/19 11:48:29;;;;;;;2.58;0.40;;;;;;;4.99;58.61;101852.72;5029530;28;20045;-75
2021/12/19 11:51:06;;;;;;;0.98;0.20;;;;;;;4.98;58.83;101851.06;5047773;28;20025;-76
2021/12/19 11:53:36;;;;;;;2.03;0.22;;;;;;;4.98;59.02;101856.47;5036428;28;20107;-76
2021/12/19 11:56:11;;;;;;;0.85;0.20;;;;;;;4.98;59.45;101861.88;5048146;28;20470;-75
2021/12/19 11:58:48;;;;;;;1.23;0.30;;;;;;;4.97;59.50;101855.63;5049568;28;20029;-76
2021/12/19 12:01:19;;;;;;;1.35;0.25;;;;;;;4.99;59.23;101839.19;5036597;28;20103;-75
2021/12/19 12:03:48;;;;;;;0.20;0.20;;;;;;;5.00;59.00;101843.59;5029666;28;20036;-75
2021/12/19 12:06:17;;;;;;;0.52;0.20;;;;;;;5.02;59.09;101852.28;5035836;28;20051;-75
2021/12/19 12:09:12;;;;;;;1.90;0.40;;;;;;;5.03;58.51;101867.47;5047372;28;20490;-75
2021/12/19 12:12:03;;;;;;;1.45;0.17;;;;;;;5.06;58.13;101845.44;5049046;28;20092;-76
2021/12/19 12:14:31;;;;;;;2.58;0.40;;;;;;;5.09;57.77;101863.94;5040247;28;20085;-75
2021/12/19 12:17:01;;;;;;;0.55;0.25;;;;;;;5.09;58.06;101858.53;5028572;28;20486;-76
2021/12/19 12:19:43;;;;;;;0.10;0.10;;;;;;;5.10;58.19;101835.84;5047447;28;20111;-75
2021/12/19 12:22:24;;;;;;;0.32;0.20;;;;;;;5.14;57.28;101858.72;5047089;28;20100;-75
2021/12/19 12:25:09;;;;;;;0.20;0.20;;;;;;;5.16;57.29;101864.75;5032879;28;20107;-76
2021/12/19 12:27:44;;;;;;;0.20;0.10;;;;;;;5.20;57.30;101862.44;5033211;28;20462;-76
2021/12/19 12:30:16;;;;;;;1.58;0.57;;;;;;;5.21;57.14;101866.81;5048398;28;20095;-76
2021/12/19 12:32:41;;;;;;;0.25;0.20;;;;;;;5.23;57.36;101865.56;5026993;28;20071;-76
2021/12/19 12:35:07;;;;;;;0.65;0.20;;;;;;;5.24;57.18;101861.81;5030878;28;20029;-76
2021/12/19 12:37:33;;;;;;;1.25;0.50;;;;;;;5.25;57.18;101858.06;5020941;28;20033;-75
2021/12/19 12:40:29;;;;;;;0.20;0.20;;;;;;;5.27;56.27;101866.81;5050558;28;20068;-76
2021/12/19 12:43:10;;;;;;;0.88;0.30;;;;;;;5.31;56.12;101872.63;5020865;28;20489;-76
2021/12/19 12:46:10;;;;;;;0.67;0.20;;;;;;;5.34;56.69;101883.81;5044974;28;20033;-76